sensor_id;sensor_type;location;lat;lon;timestamp;temperature;humidity
24011;DHT22;12217;50.792;4.372;2023-07-02T00:01:43;18.30;99.90
24011;DHT22;12217;50.792;4.372;2023-07-02T00:04:09;18.30;99.90
24011;DHT22;12217;50.792;4.372;2023-07-02T00:06:35;18.10;99.90
24011;DHT22;12217;50.792;4.372;2023-07-02T00:09:06;18.10;99.90
24011;DHT22;12217;50.792;4.372;2023-07-02T00:11:32;18.20;99.90
24011;DHT22;12217;50.792;4.372;2023-07-02T00:13:57;18.10;99.90
24011;DHT22;12217;50.792;4.372;2023-07-02T00:16:23;17.70;99.90
24011;DHT22;12217;50.792;4.372;2023-07-02T00:18:49;17.60;99.90
24011;DHT22;12217;50.792;4.372;2023-07-02T00:21:18;17.70;99.90
24011;DHT22;12217;50.792;4.372;2023-07-02T00:23:44;17.80;99.90
24011;DHT22;12217;50.792;4.372;2023-07-02T00:26:10;17.80;99.90
24011;DHT22;12217;50.792;4.372;2023-07-02T00:28:35;18.00;99.90
24011;DHT22;12217;50.792;4.372;2023-07-02T00:31:01;18.10;99.90
24011;DHT22;12217;50.792;4.372;2023-07-02T00:33:27;18.10;99.90
24011;DHT22;12217;50.792;4.372;2023-07-02T00:35:54;18.00;99.90
24011;DHT22;12217;50.792;4.372;2023-07-02T00:38:20;18.00;99.90
24011;DHT22;12217;50.792;4.372;2023-07-02T00:40:45;18.00;99.90
24011;DHT22;12217;50.792;4.372;2023-07-02T00:43:11;18.00;99.90
24011;DHT22;12217;50.792;4.372;2023-07-02T00:45:41;18.00;99.90
24011;DHT22;12217;50.792;4.372;2023-07-02T00:48:07;17.80;99.90
24011;DHT22;12217;50.792;4.372;2023-07-02T00:50:32;17.90;99.90
24011;DHT22;12217;50.792;4.372;2023-07-02T00:52:58;17.90;99.90
24011;DHT22;12217;50.792;4.372;2023-07-02T00:55:24;17.80;99.90
24011;DHT22;12217;50.792;4.372;2023-07-02T00:57:50;17.50;99.90
24011;DHT22;12217;50.792;4.372;2023-07-02T01:00:16;17.40;99.90
24011;DHT22;12217;50.792;4.372;2023-07-02T01:02:42;17.40;99.90
24011;DHT22;12217;50.792;4.372;2023-07-02T01:05:15;17.40;99.90
24011;DHT22;12217;50.792;4.372;2023-07-02T01:07:41;17.20;99.90
24011;DHT22;12217;50.792;4.372;2023-07-02T01:10:07;17.20;99.90
24011;DHT22;12217;50.792;4.372;2023-07-02T01:12:33;17.30;99.90
24011;DHT22;12217;50.792;4.372;2023-07-02T01:15:02;17.30;99.90
24011;DHT22;12217;50.792;4.372;2023-07-02T01:17:31;17.40;99.90
24011;DHT22;12217;50.792;4.372;2023-07-02T01:20:09;17.50;99.90
24011;DHT22;12217;50.792;4.372;2023-07-02T01:22:35;17.50;99.90
24011;DHT22;12217;50.792;4.372;2023-07-02T01:25:01;17.50;99.90
24011;DHT22;12217;50.792;4.372;2023-07-02T01:27:30;17.60;99.90
24011;DHT22;12217;50.792;4.372;2023-07-02T01:29:56;17.40;99.90
24011;DHT22;12217;50.792;4.372;2023-07-02T01:32:22;17.60;99.90
24011;DHT22;12217;50.792;4.372;2023-07-02T01:34:47;17.60;99.90
24011;DHT22;12217;50.792;4.372;2023-07-02T01:37:15;17.60;99.90
24011;DHT22;12217;50.792;4.372;2023-07-02T01:39:41;17.60;99.90
24011;DHT22;12217;50.792;4.372;2023-07-02T01:42:20;17.50;99.90
24011;DHT22;12217;50.792;4.372;2023-07-02T01:44:47;17.60;99.90
24011;DHT22;12217;50.792;4.372;2023-07-02T01:47:13;17.60;99.90
24011;DHT22;12217;50.792;4.372;2023-07-02T01:49:39;17.30;99.90
24011;DHT22;12217;50.792;4.372;2023-07-02T01:52:06;17.40;99.90
24011;DHT22;12217;50.792;4.372;2023-07-02T01:54:32;17.40;99.90
24011;DHT22;12217;50.792;4.372;2023-07-02T01:56:58;17.40;99.90
24011;DHT22;12217;50.792;4.372;2023-07-02T01:59:25;17.50;99.90
24011;DHT22;12217;50.792;4.372;2023-07-02T02:01:50;17.50;99.90
24011;DHT22;12217;50.792;4.372;2023-07-02T02:04:16;17.50;99.90
24011;DHT22;12217;50.792;4.372;2023-07-02T02:06:42;17.40;99.90
24011;DHT22;12217;50.792;4.372;2023-07-02T02:09:08;17.60;99.90
24011;DHT22;12217;50.792;4.372;2023-07-02T02:11:37;17.60;99.90
24011;DHT22;12217;50.792;4.372;2023-07-02T02:14:03;17.60;99.90
24011;DHT22;12217;50.792;4.372;2023-07-02T02:16:29;17.70;99.90
24011;DHT22;12217;50.792;4.372;2023-07-02T02:18:55;17.70;99.90
24011;DHT22;12217;50.792;4.372;2023-07-02T02:21:21;17.70;99.90
24011;DHT22;12217;50.792;4.372;2023-07-02T02:23:47;17.80;99.90
24011;DHT22;12217;50.792;4.372;2023-07-02T02:26:13;17.90;99.90
24011;DHT22;12217;50.792;4.372;2023-07-02T02:28:38;18.00;99.90
24011;DHT22;12217;50.792;4.372;2023-07-02T02:31:04;17.80;99.90
24011;DHT22;12217;50.792;4.372;2023-07-02T02:33:30;17.70;99.90
24011;DHT22;12217;50.792;4.372;2023-07-02T02:35:56;17.60;99.90
24011;DHT22;12217;50.792;4.372;2023-07-02T02:38:21;17.40;99.90
24011;DHT22;12217;50.792;4.372;2023-07-02T02:40:47;17.40;99.90
24011;DHT22;12217;50.792;4.372;2023-07-02T02:43:13;17.60;99.90
24011;DHT22;12217;50.792;4.372;2023-07-02T02:45:38;17.60;99.90
24011;DHT22;12217;50.792;4.372;2023-07-02T02:48:04;17.60;99.90
24011;DHT22;12217;50.792;4.372;2023-07-02T02:50:30;17.60;99.90
24011;DHT22;12217;50.792;4.372;2023-07-02T02:52:55;17.80;99.90
24011;DHT22;12217;50.792;4.372;2023-07-02T02:55:21;17.70;99.90
24011;DHT22;12217;50.792;4.372;2023-07-02T02:57:46;17.70;99.90
24011;DHT22;12217;50.792;4.372;2023-07-02T03:00:12;17.50;99.90
24011;DHT22;12217;50.792;4.372;2023-07-02T03:02:38;17.60;99.90
24011;DHT22;12217;50.792;4.372;2023-07-02T03:05:05;17.80;99.90
24011;DHT22;12217;50.792;4.372;2023-07-02T03:07:32;17.70;99.90
24011;DHT22;12217;50.792;4.372;2023-07-02T03:09:57;17.60;99.90
24011;DHT22;12217;50.792;4.372;2023-07-02T03:12:25;17.70;99.90
24011;DHT22;12217;50.792;4.372;2023-07-02T03:14:51;17.60;99.90
24011;DHT22;12217;50.792;4.372;2023-07-02T03:17:22;17.60;99.90
24011;DHT22;12217;50.792;4.372;2023-07-02T03:19:48;17.60;99.90
24011;DHT22;12217;50.792;4.372;2023-07-02T03:22:14;17.80;99.90
24011;DHT22;12217;50.792;4.372;2023-07-02T03:24:39;17.60;99.90
24011;DHT22;12217;50.792;4.372;2023-07-02T03:27:05;17.60;99.90
24011;DHT22;12217;50.792;4.372;2023-07-02T03:29:33;17.50;99.90
24011;DHT22;12217;50.792;4.372;2023-07-02T03:31:58;17.60;99.90
24011;DHT22;12217;50.792;4.372;2023-07-02T03:34:24;17.70;99.90
24011;DHT22;12217;50.792;4.372;2023-07-02T03:36:50;17.70;99.90
24011;DHT22;12217;50.792;4.372;2023-07-02T03:39:16;17.40;99.90
24011;DHT22;12217;50.792;4.372;2023-07-02T03:41:44;17.30;99.90
24011;DHT22;12217;50.792;4.372;2023-07-02T03:44:10;17.30;99.90
24011;DHT22;12217;50.792;4.372;2023-07-02T03:46:36;17.30;99.90
24011;DHT22;12217;50.792;4.372;2023-07-02T03:49:02;17.20;99.90
24011;DHT22;12217;50.792;4.372;2023-07-02T03:51:28;17.30;99.90
24011;DHT22;12217;50.792;4.372;2023-07-02T03:53:54;17.30;99.90
24011;DHT22;12217;50.792;4.372;2023-07-02T03:56:20;17.10;99.90
24011;DHT22;12217;50.792;4.372;2023-07-02T03:58:45;17.10;99.90
24011;DHT22;12217;50.792;4.372;2023-07-02T04:01:11;17.30;99.90
24011;DHT22;12217;50.792;4.372;2023-07-02T04:03:37;17.20;99.90
24011;DHT22;12217;50.792;4.372;2023-07-02T04:06:03;17.10;99.90
24011;DHT22;12217;50.792;4.372;2023-07-02T04:08:31;17.20;99.90
24011;DHT22;12217;50.792;4.372;2023-07-02T04:10:57;17.10;99.90
24011;DHT22;12217;50.792;4.372;2023-07-02T04:13:22;17.20;99.90
24011;DHT22;12217;50.792;4.372;2023-07-02T04:15:48;17.30;99.90
24011;DHT22;12217;50.792;4.372;2023-07-02T04:18:13;17.30;99.90
24011;DHT22;12217;50.792;4.372;2023-07-02T04:20:39;17.40;99.90
24011;DHT22;12217;50.792;4.372;2023-07-02T04:23:05;17.40;99.90
24011;DHT22;12217;50.792;4.372;2023-07-02T04:25:31;17.40;99.90
24011;DHT22;12217;50.792;4.372;2023-07-02T04:27:57;17.40;99.90
24011;DHT22;12217;50.792;4.372;2023-07-02T04:30:24;17.40;99.90
24011;DHT22;12217;50.792;4.372;2023-07-02T04:32:51;17.30;99.90
24011;DHT22;12217;50.792;4.372;2023-07-02T04:35:17;17.20;99.90
24011;DHT22;12217;50.792;4.372;2023-07-02T04:37:42;17.20;99.90
24011;DHT22;12217;50.792;4.372;2023-07-02T04:40:08;17.20;99.90
24011;DHT22;12217;50.792;4.372;2023-07-02T04:42:38;17.30;99.90
24011;DHT22;12217;50.792;4.372;2023-07-02T04:45:07;17.40;99.90
24011;DHT22;12217;50.792;4.372;2023-07-02T04:47:34;17.40;99.90
24011;DHT22;12217;50.792;4.372;2023-07-02T04:50:00;17.50;99.90
24011;DHT22;12217;50.792;4.372;2023-07-02T04:52:26;17.60;99.90
24011;DHT22;12217;50.792;4.372;2023-07-02T04:54:51;17.60;99.90
24011;DHT22;12217;50.792;4.372;2023-07-02T04:57:17;17.40;99.90
24011;DHT22;12217;50.792;4.372;2023-07-02T04:59:43;17.40;99.90
24011;DHT22;12217;50.792;4.372;2023-07-02T05:02:08;17.30;99.90
24011;DHT22;12217;50.792;4.372;2023-07-02T05:04:35;17.20;99.90
24011;DHT22;12217;50.792;4.372;2023-07-02T05:07:03;17.40;99.90
24011;DHT22;12217;50.792;4.372;2023-07-02T05:09:29;17.30;99.90
24011;DHT22;12217;50.792;4.372;2023-07-02T05:11:54;17.30;99.90
24011;DHT22;12217;50.792;4.372;2023-07-02T05:14:20;17.10;99.90
24011;DHT22;12217;50.792;4.372;2023-07-02T05:16:45;16.90;99.90
24011;DHT22;12217;50.792;4.372;2023-07-02T05:19:11;16.90;99.90
24011;DHT22;12217;50.792;4.372;2023-07-02T05:21:37;16.90;99.90
24011;DHT22;12217;50.792;4.372;2023-07-02T05:24:02;16.90;99.90
24011;DHT22;12217;50.792;4.372;2023-07-02T05:26:28;17.10;99.90
24011;DHT22;12217;50.792;4.372;2023-07-02T05:28:54;17.10;99.90
24011;DHT22;12217;50.792;4.372;2023-07-02T05:31:19;17.10;99.90
24011;DHT22;12217;50.792;4.372;2023-07-02T05:33:45;17.10;99.90
24011;DHT22;12217;50.792;4.372;2023-07-02T05:36:11;17.10;99.90
24011;DHT22;12217;50.792;4.372;2023-07-02T05:38:36;17.30;99.90
24011;DHT22;12217;50.792;4.372;2023-07-02T05:41:05;17.40;99.90
24011;DHT22;12217;50.792;4.372;2023-07-02T05:43:30;17.60;99.90
24011;DHT22;12217;50.792;4.372;2023-07-02T05:45:58;17.60;99.90
24011;DHT22;12217;50.792;4.372;2023-07-02T05:48:28;17.60;99.90
24011;DHT22;12217;50.792;4.372;2023-07-02T05:50:54;17.70;99.90
24011;DHT22;12217;50.792;4.372;2023-07-02T05:53:20;17.60;99.90
24011;DHT22;12217;50.792;4.372;2023-07-02T05:55:45;17.70;99.90
24011;DHT22;12217;50.792;4.372;2023-07-02T05:58:11;17.70;99.90
24011;DHT22;12217;50.792;4.372;2023-07-02T06:00:36;17.40;99.90
24011;DHT22;12217;50.792;4.372;2023-07-02T06:03:02;17.50;99.90
24011;DHT22;12217;50.792;4.372;2023-07-02T06:05:28;17.60;99.90
24011;DHT22;12217;50.792;4.372;2023-07-02T06:07:54;17.80;99.90
24011;DHT22;12217;50.792;4.372;2023-07-02T06:10:19;17.90;99.90
24011;DHT22;12217;50.792;4.372;2023-07-02T06:12:45;17.90;99.90
24011;DHT22;12217;50.792;4.372;2023-07-02T06:15:11;18.00;99.90
24011;DHT22;12217;50.792;4.372;2023-07-02T06:17:36;18.10;99.90
24011;DHT22;12217;50.792;4.372;2023-07-02T06:20:03;18.10;99.90
24011;DHT22;12217;50.792;4.372;2023-07-02T06:22:32;18.00;99.90
24011;DHT22;12217;50.792;4.372;2023-07-02T06:24:58;18.00;99.90
24011;DHT22;12217;50.792;4.372;2023-07-02T06:27:23;17.90;99.90
24011;DHT22;12217;50.792;4.372;2023-07-02T06:29:49;18.00;99.90
24011;DHT22;12217;50.792;4.372;2023-07-02T06:32:16;18.10;99.90
24011;DHT22;12217;50.792;4.372;2023-07-02T06:34:42;18.20;99.90
24011;DHT22;12217;50.792;4.372;2023-07-02T06:37:07;18.40;99.90
24011;DHT22;12217;50.792;4.372;2023-07-02T06:39:33;18.60;99.90
24011;DHT22;12217;50.792;4.372;2023-07-02T06:41:58;18.60;99.90
24011;DHT22;12217;50.792;4.372;2023-07-02T06:44:24;18.60;99.90
24011;DHT22;12217;50.792;4.372;2023-07-02T06:46:49;18.70;99.90
24011;DHT22;12217;50.792;4.372;2023-07-02T06:49:15;18.80;99.90
24011;DHT22;12217;50.792;4.372;2023-07-02T06:51:41;18.90;99.90
24011;DHT22;12217;50.792;4.372;2023-07-02T06:54:06;18.70;99.90
24011;DHT22;12217;50.792;4.372;2023-07-02T06:56:32;18.40;99.90
24011;DHT22;12217;50.792;4.372;2023-07-02T06:58:59;18.40;99.90
24011;DHT22;12217;50.792;4.372;2023-07-02T07:01:25;18.60;99.90
24011;DHT22;12217;50.792;4.372;2023-07-02T07:03:51;18.70;99.90
24011;DHT22;12217;50.792;4.372;2023-07-02T07:06:17;18.70;99.90
24011;DHT22;12217;50.792;4.372;2023-07-02T07:08:42;18.70;99.90
24011;DHT22;12217;50.792;4.372;2023-07-02T07:11:08;18.70;99.90
24011;DHT22;12217;50.792;4.372;2023-07-02T07:13:34;18.80;99.90
24011;DHT22;12217;50.792;4.372;2023-07-02T07:15:59;18.80;99.90
24011;DHT22;12217;50.792;4.372;2023-07-02T07:18:25;18.90;99.90
24011;DHT22;12217;50.792;4.372;2023-07-02T07:20:51;19.10;99.90
24011;DHT22;12217;50.792;4.372;2023-07-02T07:23:18;19.20;99.90
24011;DHT22;12217;50.792;4.372;2023-07-02T07:25:44;19.20;99.90
24011;DHT22;12217;50.792;4.372;2023-07-02T07:28:10;19.40;99.90
24011;DHT22;12217;50.792;4.372;2023-07-02T07:30:43;19.70;99.90
24011;DHT22;12217;50.792;4.372;2023-07-02T07:33:09;19.90;99.90
24011;DHT22;12217;50.792;4.372;2023-07-02T07:35:35;19.80;99.90
24011;DHT22;12217;50.792;4.372;2023-07-02T07:38:01;19.90;99.90
24011;DHT22;12217;50.792;4.372;2023-07-02T07:40:27;20.00;99.90
24011;DHT22;12217;50.792;4.372;2023-07-02T07:42:53;20.10;99.90
24011;DHT22;12217;50.792;4.372;2023-07-02T07:45:18;20.30;99.90
24011;DHT22;12217;50.792;4.372;2023-07-02T07:47:44;20.30;99.90
24011;DHT22;12217;50.792;4.372;2023-07-02T07:50:09;20.40;99.90
24011;DHT22;12217;50.792;4.372;2023-07-02T07:52:39;20.40;99.90
24011;DHT22;12217;50.792;4.372;2023-07-02T07:55:06;20.30;99.90
24011;DHT22;12217;50.792;4.372;2023-07-02T07:57:32;20.50;99.90
24011;DHT22;12217;50.792;4.372;2023-07-02T07:59:57;20.50;99.90
24011;DHT22;12217;50.792;4.372;2023-07-02T08:02:23;20.60;99.90
24011;DHT22;12217;50.792;4.372;2023-07-02T08:04:49;20.60;99.90
24011;DHT22;12217;50.792;4.372;2023-07-02T08:07:14;20.70;99.90
24011;DHT22;12217;50.792;4.372;2023-07-02T08:09:40;20.70;99.90
24011;DHT22;12217;50.792;4.372;2023-07-02T08:12:06;20.80;99.90
24011;DHT22;12217;50.792;4.372;2023-07-02T08:14:33;20.70;99.90
24011;DHT22;12217;50.792;4.372;2023-07-02T08:17:00;20.80;99.90
24011;DHT22;12217;50.792;4.372;2023-07-02T08:19:26;20.50;99.90
24011;DHT22;12217;50.792;4.372;2023-07-02T08:21:51;20.40;99.90
24011;DHT22;12217;50.792;4.372;2023-07-02T08:24:17;20.50;99.90
24011;DHT22;12217;50.792;4.372;2023-07-02T08:26:43;20.40;99.90
24011;DHT22;12217;50.792;4.372;2023-07-02T08:29:10;20.60;99.90
24011;DHT22;12217;50.792;4.372;2023-07-02T08:31:36;20.80;99.90
24011;DHT22;12217;50.792;4.372;2023-07-02T08:34:02;21.00;99.90
24011;DHT22;12217;50.792;4.372;2023-07-02T08:36:28;21.20;99.90
24011;DHT22;12217;50.792;4.372;2023-07-02T08:38:53;21.00;99.90
24011;DHT22;12217;50.792;4.372;2023-07-02T08:41:20;20.90;99.90
24011;DHT22;12217;50.792;4.372;2023-07-02T08:43:46;20.70;99.90
24011;DHT22;12217;50.792;4.372;2023-07-02T08:46:15;20.50;99.90
24011;DHT22;12217;50.792;4.372;2023-07-02T08:48:41;20.50;99.90
24011;DHT22;12217;50.792;4.372;2023-07-02T08:51:08;20.40;99.90
24011;DHT22;12217;50.792;4.372;2023-07-02T08:53:34;20.10;99.90
24011;DHT22;12217;50.792;4.372;2023-07-02T08:56:00;19.90;99.90
24011;DHT22;12217;50.792;4.372;2023-07-02T08:58:26;19.70;99.90
24011;DHT22;12217;50.792;4.372;2023-07-02T09:01:09;19.60;99.90
24011;DHT22;12217;50.792;4.372;2023-07-02T09:03:36;19.70;99.90
24011;DHT22;12217;50.792;4.372;2023-07-02T09:06:06;19.70;99.90
24011;DHT22;12217;50.792;4.372;2023-07-02T09:08:31;19.60;99.90
24011;DHT22;12217;50.792;4.372;2023-07-02T09:11:10;19.80;99.90
24011;DHT22;12217;50.792;4.372;2023-07-02T09:14:08;20.20;99.90
24011;DHT22;12217;50.792;4.372;2023-07-02T09:16:34;20.50;99.90
24011;DHT22;12217;50.792;4.372;2023-07-02T09:19:07;20.60;99.90
24011;DHT22;12217;50.792;4.372;2023-07-02T09:21:42;20.50;99.90
24011;DHT22;12217;50.792;4.372;2023-07-02T09:24:27;20.30;99.90
24011;DHT22;12217;50.792;4.372;2023-07-02T09:26:57;20.30;99.90
24011;DHT22;12217;50.792;4.372;2023-07-02T09:29:30;20.10;99.90
24011;DHT22;12217;50.792;4.372;2023-07-02T09:32:01;19.90;99.90
24011;DHT22;12217;50.792;4.372;2023-07-02T09:34:37;19.80;99.90
24011;DHT22;12217;50.792;4.372;2023-07-02T09:37:05;19.80;99.90
24011;DHT22;12217;50.792;4.372;2023-07-02T09:39:32;19.90;99.90
24011;DHT22;12217;50.792;4.372;2023-07-02T09:42:00;19.80;99.90
24011;DHT22;12217;50.792;4.372;2023-07-02T09:44:30;19.90;99.90
24011;DHT22;12217;50.792;4.372;2023-07-02T09:47:02;20.20;99.90
24011;DHT22;12217;50.792;4.372;2023-07-02T09:49:31;20.20;99.90
24011;DHT22;12217;50.792;4.372;2023-07-02T09:52:00;20.30;99.90
24011;DHT22;12217;50.792;4.372;2023-07-02T09:54:26;20.50;99.90
24011;DHT22;12217;50.792;4.372;2023-07-02T09:56:52;20.80;99.90
24011;DHT22;12217;50.792;4.372;2023-07-02T09:59:18;20.90;99.90
24011;DHT22;12217;50.792;4.372;2023-07-02T10:01:44;21.10;99.90
24011;DHT22;12217;50.792;4.372;2023-07-02T10:04:14;21.10;99.90
24011;DHT22;12217;50.792;4.372;2023-07-02T10:09:19;21.30;99.90
24011;DHT22;12217;50.792;4.372;2023-07-02T10:11:45;21.00;99.90
24011;DHT22;12217;50.792;4.372;2023-07-02T10:14:11;20.80;99.90
24011;DHT22;12217;50.792;4.372;2023-07-02T10:16:53;20.70;99.90
24011;DHT22;12217;50.792;4.372;2023-07-02T10:19:20;20.60;99.90
24011;DHT22;12217;50.792;4.372;2023-07-02T10:21:46;20.70;99.90
24011;DHT22;12217;50.792;4.372;2023-07-02T10:24:16;20.80;99.90
24011;DHT22;12217;50.792;4.372;2023-07-02T10:26:56;20.60;99.90
24011;DHT22;12217;50.792;4.372;2023-07-02T10:29:26;20.90;99.90
24011;DHT22;12217;50.792;4.372;2023-07-02T10:31:53;20.80;99.90
24011;DHT22;12217;50.792;4.372;2023-07-02T10:34:29;20.70;99.90
24011;DHT22;12217;50.792;4.372;2023-07-02T10:36:55;20.50;99.90
24011;DHT22;12217;50.792;4.372;2023-07-02T10:39:21;20.40;99.90
24011;DHT22;12217;50.792;4.372;2023-07-02T10:41:47;20.50;99.90
24011;DHT22;12217;50.792;4.372;2023-07-02T10:44:13;20.60;99.90
24011;DHT22;12217;50.792;4.372;2023-07-02T10:46:48;20.60;99.90
24011;DHT22;12217;50.792;4.372;2023-07-02T10:49:17;20.60;99.90
24011;DHT22;12217;50.792;4.372;2023-07-02T10:51:43;21.00;99.90
24011;DHT22;12217;50.792;4.372;2023-07-02T10:54:08;21.10;99.90
24011;DHT22;12217;50.792;4.372;2023-07-02T10:56:35;21.20;99.90
24011;DHT22;12217;50.792;4.372;2023-07-02T10:59:00;21.10;99.90
24011;DHT22;12217;50.792;4.372;2023-07-02T11:01:29;20.80;99.90
24011;DHT22;12217;50.792;4.372;2023-07-02T11:03:59;20.80;99.90
24011;DHT22;12217;50.792;4.372;2023-07-02T11:06:25;20.80;99.90
24011;DHT22;12217;50.792;4.372;2023-07-02T11:08:51;21.00;99.90
24011;DHT22;12217;50.792;4.372;2023-07-02T11:11:17;21.30;99.90
24011;DHT22;12217;50.792;4.372;2023-07-02T11:13:47;21.40;99.90
24011;DHT22;12217;50.792;4.372;2023-07-02T11:16:24;21.20;99.90
24011;DHT22;12217;50.792;4.372;2023-07-02T11:19:06;21.30;99.90
24011;DHT22;12217;50.792;4.372;2023-07-02T11:21:35;21.40;99.90
24011;DHT22;12217;50.792;4.372;2023-07-02T11:24:07;21.30;99.90
24011;DHT22;12217;50.792;4.372;2023-07-02T11:29:02;21.20;99.90
24011;DHT22;12217;50.792;4.372;2023-07-02T11:31:27;21.40;99.90
24011;DHT22;12217;50.792;4.372;2023-07-02T11:33:53;21.40;99.90
24011;DHT22;12217;50.792;4.372;2023-07-02T11:36:23;21.40;99.90
24011;DHT22;12217;50.792;4.372;2023-07-02T11:38:50;21.40;99.90
24011;DHT22;12217;50.792;4.372;2023-07-02T11:41:17;21.70;99.90
24011;DHT22;12217;50.792;4.372;2023-07-02T11:43:43;21.70;99.90
24011;DHT22;12217;50.792;4.372;2023-07-02T11:46:08;21.60;99.90
24011;DHT22;12217;50.792;4.372;2023-07-02T11:48:34;21.80;99.90
24011;DHT22;12217;50.792;4.372;2023-07-02T11:51:00;21.60;99.90
24011;DHT22;12217;50.792;4.372;2023-07-02T11:53:25;21.90;99.90
24011;DHT22;12217;50.792;4.372;2023-07-02T11:55:51;22.00;99.90
24011;DHT22;12217;50.792;4.372;2023-07-02T11:58:16;22.30;99.90
24011;DHT22;12217;50.792;4.372;2023-07-02T12:00:42;22.60;99.90
24011;DHT22;12217;50.792;4.372;2023-07-02T12:03:08;23.00;99.90
24011;DHT22;12217;50.792;4.372;2023-07-02T12:05:33;22.90;99.90
24011;DHT22;12217;50.792;4.372;2023-07-02T12:08:01;23.10;99.90
24011;DHT22;12217;50.792;4.372;2023-07-02T12:10:27;23.00;99.90
24011;DHT22;12217;50.792;4.372;2023-07-02T12:12:52;22.70;99.90
24011;DHT22;12217;50.792;4.372;2023-07-02T12:15:18;23.10;99.90
24011;DHT22;12217;50.792;4.372;2023-07-02T12:17:43;23.40;99.90
24011;DHT22;12217;50.792;4.372;2023-07-02T12:20:09;23.60;99.90
24011;DHT22;12217;50.792;4.372;2023-07-02T12:22:35;23.20;99.90
24011;DHT22;12217;50.792;4.372;2023-07-02T12:25:01;22.80;99.90
24011;DHT22;12217;50.792;4.372;2023-07-02T12:27:26;22.60;99.90
24011;DHT22;12217;50.792;4.372;2023-07-02T12:29:52;22.40;99.90
24011;DHT22;12217;50.792;4.372;2023-07-02T12:32:18;22.50;99.90
24011;DHT22;12217;50.792;4.372;2023-07-02T12:34:44;22.70;99.90
24011;DHT22;12217;50.792;4.372;2023-07-02T12:37:09;23.10;99.90
24011;DHT22;12217;50.792;4.372;2023-07-02T12:39:35;23.60;99.90
24011;DHT22;12217;50.792;4.372;2023-07-02T12:42:03;24.00;99.90
24011;DHT22;12217;50.792;4.372;2023-07-02T12:44:28;24.30;99.90
24011;DHT22;12217;50.792;4.372;2023-07-02T12:46:54;24.50;99.90
24011;DHT22;12217;50.792;4.372;2023-07-02T12:49:19;24.60;99.90
24011;DHT22;12217;50.792;4.372;2023-07-02T12:51:45;24.70;99.90
24011;DHT22;12217;50.792;4.372;2023-07-02T12:54:12;25.10;99.90
24011;DHT22;12217;50.792;4.372;2023-07-02T12:56:37;25.30;99.90
24011;DHT22;12217;50.792;4.372;2023-07-02T12:59:03;25.30;99.90
24011;DHT22;12217;50.792;4.372;2023-07-02T13:01:29;24.90;99.90
24011;DHT22;12217;50.792;4.372;2023-07-02T13:03:54;24.50;99.90
24011;DHT22;12217;50.792;4.372;2023-07-02T13:06:20;24.80;99.10
24011;DHT22;12217;50.792;4.372;2023-07-02T13:08:45;25.00;99.90
24011;DHT22;12217;50.792;4.372;2023-07-02T13:11:11;25.00;98.50
24011;DHT22;12217;50.792;4.372;2023-07-02T13:13:36;24.60;97.00
24011;DHT22;12217;50.792;4.372;2023-07-02T13:16:03;24.20;99.20
24011;DHT22;12217;50.792;4.372;2023-07-02T13:18:28;24.30;99.90
24011;DHT22;12217;50.792;4.372;2023-07-02T13:20:54;24.30;99.90
24011;DHT22;12217;50.792;4.372;2023-07-02T13:23:19;24.30;99.90
24011;DHT22;12217;50.792;4.372;2023-07-02T13:25:45;24.50;99.90
24011;DHT22;12217;50.792;4.372;2023-07-02T13:28:11;24.70;99.50
24011;DHT22;12217;50.792;4.372;2023-07-02T13:30:37;24.70;99.50
24011;DHT22;12217;50.792;4.372;2023-07-02T13:33:03;24.60;97.80
24011;DHT22;12217;50.792;4.372;2023-07-02T13:35:28;24.40;97.80
24011;DHT22;12217;50.792;4.372;2023-07-02T13:37:54;24.20;98.10
24011;DHT22;12217;50.792;4.372;2023-07-02T13:40:20;24.00;98.40
24011;DHT22;12217;50.792;4.372;2023-07-02T13:42:45;24.00;97.90
24011;DHT22;12217;50.792;4.372;2023-07-02T13:45:12;24.30;99.90
24011;DHT22;12217;50.792;4.372;2023-07-02T13:47:37;24.60;97.80
24011;DHT22;12217;50.792;4.372;2023-07-02T13:50:04;24.80;98.50
24011;DHT22;12217;50.792;4.372;2023-07-02T13:52:30;25.00;99.90
24011;DHT22;12217;50.792;4.372;2023-07-02T13:54:55;25.20;96.80
24011;DHT22;12217;50.792;4.372;2023-07-02T13:57:21;25.20;97.30
24011;DHT22;12217;50.792;4.372;2023-07-02T13:59:47;25.20;97.20
24011;DHT22;12217;50.792;4.372;2023-07-02T14:02:12;25.00;96.80
24011;DHT22;12217;50.792;4.372;2023-07-02T14:04:38;24.90;96.80
24011;DHT22;12217;50.792;4.372;2023-07-02T14:07:04;25.00;97.20
24011;DHT22;12217;50.792;4.372;2023-07-02T14:09:30;25.10;96.90
24011;DHT22;12217;50.792;4.372;2023-07-02T14:11:56;25.40;97.50
24011;DHT22;12217;50.792;4.372;2023-07-02T14:14:21;25.40;98.10
24011;DHT22;12217;50.792;4.372;2023-07-02T14:16:47;25.10;97.00
24011;DHT22;12217;50.792;4.372;2023-07-02T14:19:12;24.60;96.10
24011;DHT22;12217;50.792;4.372;2023-07-02T14:21:38;24.40;97.20
24011;DHT22;12217;50.792;4.372;2023-07-02T14:24:04;24.60;99.80
24011;DHT22;12217;50.792;4.372;2023-07-02T14:26:30;24.60;97.00
24011;DHT22;12217;50.792;4.372;2023-07-02T14:28:56;24.30;97.60
24011;DHT22;12217;50.792;4.372;2023-07-02T14:31:23;24.50;98.70
24011;DHT22;12217;50.792;4.372;2023-07-02T14:33:49;24.60;98.60
24011;DHT22;12217;50.792;4.372;2023-07-02T14:36:15;24.80;98.00
24011;DHT22;12217;50.792;4.372;2023-07-02T14:38:40;24.90;97.90
24011;DHT22;12217;50.792;4.372;2023-07-02T14:41:06;24.90;96.60
24011;DHT22;12217;50.792;4.372;2023-07-02T14:43:32;24.40;98.10
24011;DHT22;12217;50.792;4.372;2023-07-02T14:46:01;24.70;99.80
24011;DHT22;12217;50.792;4.372;2023-07-02T14:48:27;24.80;97.10
24011;DHT22;12217;50.792;4.372;2023-07-02T14:50:57;24.60;96.70
24011;DHT22;12217;50.792;4.372;2023-07-02T14:53:24;24.40;96.70
24011;DHT22;12217;50.792;4.372;2023-07-02T14:55:54;24.20;96.40
24011;DHT22;12217;50.792;4.372;2023-07-02T14:58:20;24.20;96.60
24011;DHT22;12217;50.792;4.372;2023-07-02T15:00:51;24.10;97.30
24011;DHT22;12217;50.792;4.372;2023-07-02T15:03:18;24.20;97.40
24011;DHT22;12217;50.792;4.372;2023-07-02T15:05:46;24.00;98.00
24011;DHT22;12217;50.792;4.372;2023-07-02T15:08:12;24.10;97.80
24011;DHT22;12217;50.792;4.372;2023-07-02T15:10:39;24.10;96.80
24011;DHT22;12217;50.792;4.372;2023-07-02T15:13:08;24.00;98.60
24011;DHT22;12217;50.792;4.372;2023-07-02T15:15:36;23.80;97.30
24011;DHT22;12217;50.792;4.372;2023-07-02T15:18:02;23.80;97.10
24011;DHT22;12217;50.792;4.372;2023-07-02T15:20:28;23.80;97.90
24011;DHT22;12217;50.792;4.372;2023-07-02T15:22:54;24.00;98.90
24011;DHT22;12217;50.792;4.372;2023-07-02T15:25:20;24.20;98.60
24011;DHT22;12217;50.792;4.372;2023-07-02T15:27:46;24.20;96.20
24011;DHT22;12217;50.792;4.372;2023-07-02T15:30:11;24.20;96.90
24011;DHT22;12217;50.792;4.372;2023-07-02T15:32:37;24.00;96.20